createdAt,value
2019-03-20T00:00:12.867Z,14.97
2019-03-20T00:02:41.731Z,14.30
2019-03-20T00:05:10.693Z,14.67
2019-03-20T00:07:39.631Z,15.13
2019-03-20T00:10:09.598Z,18.87
2019-03-20T00:12:38.924Z,21.50
2019-03-20T00:15:09.377Z,19.43
2019-03-20T00:17:38.404Z,20.47
2019-03-20T00:20:08.564Z,24.70
2019-03-20T00:22:37.473Z,20.93
2019-03-20T00:25:06.577Z,21.60
2019-03-20T00:27:35.598Z,20.07
2019-03-20T00:30:04.831Z,24.00
2019-03-20T00:32:33.843Z,19.07
2019-03-20T00:35:02.818Z,19.97
2019-03-20T00:37:31.850Z,20.07
2019-03-20T00:40:00.772Z,17.20
2019-03-20T00:42:29.643Z,19.33
2019-03-20T00:44:58.614Z,20.13
2019-03-20T00:47:27.622Z,19.27
2019-03-20T00:49:58.111Z,17.97
2019-03-20T00:52:25.562Z,17.63
2019-03-20T00:54:54.532Z,22.70
2019-03-20T00:57:23.467Z,19.53
2019-03-20T00:59:52.395Z,18.13
2019-03-20T01:02:21.545Z,19.13
2019-03-20T01:04:50.461Z,18.00
2019-03-20T01:07:19.415Z,21.00
2019-03-20T01:09:48.403Z,20.90
2019-03-20T01:12:17.800Z,18.07
2019-03-20T01:14:46.308Z,17.13
2019-03-20T01:17:15.317Z,16.80
2019-03-20T01:19:44.309Z,18.50
2019-03-20T01:22:15.130Z,17.00
2019-03-20T01:24:44.030Z,17.53
2019-03-20T01:27:13.018Z,19.37
2019-03-20T01:29:41.977Z,19.73
2019-03-20T01:32:10.984Z,17.10
2019-03-20T01:34:39.984Z,16.93
2019-03-20T01:37:08.964Z,16.33
2019-03-20T01:39:37.959Z,15.70
2019-03-20T01:42:06.957Z,15.67
2019-03-20T01:44:35.969Z,16.93
2019-03-20T01:47:06.855Z,15.90
2019-03-20T01:49:33.883Z,15.60
2019-03-20T01:52:02.842Z,18.70
2019-03-20T01:54:31.880Z,18.98
2019-03-20T01:57:00.862Z,16.63
2019-03-20T01:59:29.801Z,17.00
2019-03-20T02:01:58.847Z,17.57
2019-03-20T02:04:27.792Z,16.83
2019-03-20T02:06:56.861Z,18.57
2019-03-20T02:09:25.781Z,16.50
2019-03-20T02:11:54.797Z,17.60
2019-03-20T02:14:23.765Z,16.83
2019-03-20T02:16:52.761Z,17.70
2019-03-20T02:19:21.749Z,16.57
2019-03-20T02:21:50.783Z,16.60
2019-03-20T02:24:19.743Z,16.03
2019-03-20T02:26:48.794Z,17.03
2019-03-20T02:29:17.727Z,16.93
2019-03-20T02:31:46.722Z,17.00
2019-03-20T02:34:15.755Z,16.73
2019-03-20T02:36:44.746Z,16.87
2019-03-20T02:39:13.702Z,16.67
2019-03-20T02:41:42.705Z,16.73
2019-03-20T02:44:11.658Z,17.33
2019-03-20T02:46:40.679Z,17.10
2019-03-20T02:49:09.704Z,18.03
2019-03-20T02:51:38.693Z,19.80
2019-03-20T02:54:07.761Z,17.50
2019-03-20T02:56:36.747Z,17.50
2019-03-20T02:59:05.610Z,16.97
2019-03-20T03:01:34.580Z,18.07
2019-03-20T03:04:03.657Z,17.63
2019-03-20T03:06:32.555Z,18.13
2019-03-20T03:09:06.165Z,17.67
2019-03-20T03:11:35.194Z,17.70
2019-03-20T03:14:04.117Z,20.67
2019-03-20T03:16:33.108Z,18.73
2019-03-20T03:19:02.213Z,18.27
2019-03-20T03:21:31.150Z,18.50
2019-03-20T03:24:00.165Z,18.00
2019-03-20T03:26:29.198Z,18.37
2019-03-20T03:28:58.278Z,21.00
2019-03-20T03:31:27.123Z,18.80
2019-03-20T03:33:56.081Z,18.33
2019-03-20T03:36:25.069Z,19.80
2019-03-20T03:38:54.067Z,19.10
2019-03-20T03:41:23.055Z,20.33
2019-03-20T03:43:52.025Z,20.43
2019-03-20T03:46:20.996Z,21.67
2019-03-20T03:48:50.099Z,24.57
2019-03-20T03:51:19.013Z,24.17
2019-03-20T03:53:48.026Z,21.47
2019-03-20T03:56:17.037Z,20.37
2019-03-20T03:58:46.092Z,19.57
2019-03-20T04:01:15.031Z,20.57
2019-03-20T04:03:44.052Z,20.33
2019-03-20T04:06:13.043Z,20.23
2019-03-20T04:08:42.013Z,18.97
2019-03-20T04:11:10.966Z,19.13
2019-03-20T04:13:40.212Z,18.57
2019-03-20T04:16:09.266Z,18.47
2019-03-20T04:18:38.254Z,17.97
2019-03-20T04:21:10.478Z,18.57
2019-03-20T04:23:39.417Z,18.57
2019-03-20T04:26:08.423Z,18.03
2019-03-20T04:28:37.438Z,18.67
2019-03-20T04:31:06.485Z,19.83
2019-03-20T04:33:35.405Z,19.20
2019-03-20T04:36:04.490Z,19.43
2019-03-20T04:38:33.432Z,19.70
2019-03-20T04:41:02.504Z,20.70
2019-03-20T04:43:31.452Z,19.33
2019-03-20T04:46:00.473Z,19.87
2019-03-20T04:48:29.497Z,20.90
2019-03-20T04:50:58.492Z,19.60
2019-03-20T04:53:30.169Z,21.17
2019-03-20T04:55:59.119Z,20.00
2019-03-20T04:58:28.111Z,24.70
2019-03-20T05:00:56.998Z,21.20
2019-03-20T05:03:25.924Z,24.43
2019-03-20T05:05:54.936Z,22.17
2019-03-20T05:08:24.005Z,21.57
2019-03-20T05:10:53.071Z,23.37
2019-03-20T05:13:23.658Z,21.03
2019-03-20T05:15:53.899Z,22.03
2019-03-20T05:18:24.599Z,25.40
2019-03-20T05:20:55.262Z,23.07
2019-03-20T05:23:26.071Z,21.77
2019-03-20T05:25:59.174Z,21.30
2019-03-20T05:28:27.031Z,22.20
2019-03-20T05:31:00.193Z,22.47
2019-03-20T05:33:30.365Z,22.33
2019-03-20T05:36:00.799Z,23.27
2019-03-20T05:38:30.938Z,23.03
2019-03-20T05:41:04.293Z,23.10
2019-03-20T05:43:35.108Z,21.67
2019-03-20T05:46:05.385Z,23.50
2019-03-20T05:48:35.929Z,22.47
2019-03-20T05:51:05.863Z,22.97
2019-03-20T05:53:36.538Z,22.33
2019-03-20T05:56:07.037Z,23.00
2019-03-20T05:58:40.229Z,23.13
2019-03-20T06:01:10.428Z,23.47
2019-03-20T06:03:40.886Z,22.40
2019-03-20T06:06:11.468Z,22.80
2019-03-20T06:08:41.868Z,22.50
2019-03-20T06:11:12.297Z,22.93
2019-03-20T06:13:43.238Z,23.10
2019-03-20T06:16:13.862Z,23.70
2019-03-20T06:18:44.705Z,22.57
2019-03-20T06:21:14.378Z,23.00
2019-03-20T06:23:44.595Z,23.17
2019-03-20T06:26:15.101Z,26.77
2019-03-20T06:28:48.728Z,24.73
2019-03-20T06:31:19.491Z,24.17
2019-03-20T06:33:50.408Z,22.93
2019-03-20T06:36:24.185Z,24.13
2019-03-20T06:38:55.128Z,22.83
2019-03-20T06:41:25.863Z,23.77
2019-03-20T06:43:56.705Z,24.27
2019-03-20T06:46:27.411Z,23.93
2019-03-20T06:48:58.321Z,24.20
2019-03-20T06:51:29.234Z,24.67
2019-03-20T06:54:00.343Z,23.40
2019-03-20T06:56:33.074Z,23.60
2019-03-20T06:59:50.953Z,21.70
2019-03-20T07:02:23.443Z,22.40
2019-03-20T07:05:31.580Z,23.37
2019-03-20T07:08:02.444Z,23.70
2019-03-20T07:11:13.184Z,24.23
2019-03-20T07:13:43.793Z,23.77
2019-03-20T07:16:16.559Z,23.07
2019-03-20T07:18:47.162Z,23.47
2019-03-20T07:21:18.750Z,24.40
2019-03-20T07:23:48.454Z,23.40
2019-03-20T07:26:23.346Z,24.47
2019-03-20T07:28:54.843Z,24.90
2019-03-20T07:31:25.755Z,23.67
2019-03-20T07:33:56.358Z,25.03
2019-03-20T07:36:28.370Z,24.37
2019-03-20T07:38:58.777Z,24.03
2019-03-20T07:41:29.721Z,24.97
2019-03-20T07:44:01.896Z,24.30
2019-03-20T07:46:32.931Z,25.20
2019-03-20T07:49:03.917Z,26.00
2019-03-20T07:51:34.742Z,25.43
2019-03-20T07:54:06.185Z,25.07
2019-03-20T07:56:36.720Z,25.40
2019-03-20T07:59:07.268Z,25.93
2019-03-20T08:01:40.991Z,25.53
2019-03-20T08:04:11.374Z,25.90
2019-03-20T08:06:42.328Z,31.80
2019-03-20T08:09:12.581Z,28.63
2019-03-20T08:11:45.665Z,29.07
2019-03-20T08:14:16.203Z,29.50
2019-03-20T08:16:46.571Z,29.70
2019-03-20T08:19:15.870Z,29.93
2019-03-20T08:21:44.967Z,30.73
2019-03-20T08:24:14.069Z,32.67
2019-03-20T08:26:43.570Z,33.60
2019-03-20T08:29:13.009Z,30.53
2019-03-20T08:31:42.187Z,31.97
2019-03-20T08:34:11.243Z,31.33
2019-03-20T08:36:40.279Z,32.40
2019-03-20T08:39:09.420Z,32.37
2019-03-20T08:41:38.792Z,33.07
2019-03-20T08:44:07.960Z,34.70
2019-03-20T08:46:36.921Z,34.30
2019-03-20T08:49:06.055Z,34.03
2019-03-20T08:51:35.642Z,34.27
2019-03-20T08:54:07.589Z,34.47
2019-03-20T08:56:36.600Z,34.87
2019-03-20T08:59:06.850Z,35.83
2019-03-20T09:01:35.842Z,35.10
2019-03-20T09:04:05.147Z,37.00
2019-03-20T09:06:34.240Z,39.27
2019-03-20T09:09:03.874Z,39.97
2019-03-20T09:11:32.882Z,39.97
2019-03-20T09:14:02.234Z,41.93
2019-03-20T09:16:31.261Z,42.57
2019-03-20T09:19:03.709Z,41.30
2019-03-20T09:21:35.095Z,41.80
2019-03-20T09:24:04.277Z,41.83
2019-03-20T09:26:36.515Z,40.67
2019-03-20T09:29:18.250Z,43.03
2019-03-20T09:31:38.101Z,40.13
2019-03-20T09:34:07.284Z,40.73
2019-03-20T09:36:42.991Z,42.70
2019-03-20T09:39:07.921Z,40.13
2019-03-20T09:41:37.102Z,41.43
2019-03-20T09:44:06.239Z,41.00
2019-03-20T09:46:35.285Z,39.23
2019-03-20T09:49:04.663Z,39.60
2019-03-20T09:51:33.991Z,39.90
2019-03-20T09:54:06.093Z,38.83
2019-03-20T09:56:38.426Z,40.03
2019-03-20T09:59:07.921Z,40.07
2019-03-20T10:01:36.947Z,42.00
2019-03-20T10:04:06.100Z,39.33
2019-03-20T10:06:35.089Z,41.80
2019-03-20T10:09:05.143Z,40.87
2019-03-20T10:11:34.666Z,42.53
2019-03-20T10:14:04.556Z,42.43
2019-03-20T10:16:33.733Z,43.10
2019-03-20T10:19:02.782Z,43.83
2019-03-20T10:21:34.439Z,44.33
2019-03-20T10:24:03.505Z,42.03
2019-03-20T10:26:32.503Z,42.90
2019-03-20T10:29:01.525Z,42.10
2019-03-20T10:31:30.605Z,43.33
2019-03-20T10:33:59.736Z,43.07
2019-03-20T10:36:28.914Z,43.33
2019-03-20T10:39:06.304Z,42.47
2019-03-20T10:41:26.863Z,42.50
2019-03-20T10:43:56.338Z,42.00
2019-03-20T10:46:25.815Z,43.43
2019-03-20T10:48:56.358Z,42.20
2019-03-20T10:51:23.777Z,42.20
2019-03-20T10:53:52.811Z,43.57
2019-03-20T10:56:22.232Z,52.38
2019-03-20T10:58:51.236Z,44.27
2019-03-20T11:01:20.375Z,43.17
2019-03-20T11:03:49.447Z,43.23
2019-03-20T11:06:18.487Z,41.87
2019-03-20T11:08:47.542Z,43.90
2019-03-20T11:11:26.536Z,44.70
2019-03-20T11:13:46.054Z,43.10
2019-03-20T11:16:15.091Z,44.53
2019-03-20T11:18:48.617Z,42.43
2019-03-20T11:21:16.955Z,43.57
2019-03-20T11:23:45.995Z,44.00
2019-03-20T11:26:15.148Z,43.10
2019-03-20T11:28:44.141Z,43.40
2019-03-20T11:31:13.619Z,45.47
2019-03-20T11:33:43.487Z,44.23
2019-03-20T11:36:12.634Z,46.37
2019-03-20T11:38:41.918Z,44.40
2019-03-20T11:41:10.989Z,45.43
2019-03-20T11:43:40.095Z,45.40
2019-03-20T11:46:09.363Z,43.30
2019-03-20T11:48:39.549Z,44.83
2019-03-20T11:51:08.961Z,44.77
2019-03-20T11:53:38.054Z,45.97
2019-03-20T11:56:08.051Z,44.73
2019-03-20T11:58:37.986Z,46.37
2019-03-20T12:01:07.118Z,43.40
2019-03-20T12:03:36.200Z,44.30
2019-03-20T12:06:05.429Z,44.13
2019-03-20T12:08:34.440Z,42.53
2019-03-20T12:11:03.565Z,44.00
2019-03-20T12:13:35.466Z,44.20
2019-03-20T12:16:07.083Z,42.10
2019-03-20T12:18:36.156Z,41.67
2019-03-20T12:21:05.548Z,41.77
2019-03-20T12:23:34.960Z,40.37
2019-03-20T12:26:04.144Z,41.63
2019-03-20T12:28:33.109Z,41.77
2019-03-20T12:31:02.484Z,42.17
2019-03-20T12:33:31.566Z,48.05
2019-03-20T12:36:00.600Z,42.53
2019-03-20T12:38:29.876Z,41.03
2019-03-20T12:40:59.569Z,38.83
2019-03-20T12:43:28.614Z,37.37
2019-03-20T12:45:57.951Z,43.60
2019-03-20T12:48:27.255Z,41.40
2019-03-20T12:50:56.376Z,40.70
2019-03-20T12:53:29.191Z,41.83
2019-03-20T12:55:59.343Z,49.07
2019-03-20T12:58:28.320Z,48.03
2019-03-20T13:00:57.279Z,47.80
2019-03-20T13:03:26.741Z,39.80
2019-03-20T13:05:56.600Z,39.80
2019-03-20T13:08:26.053Z,39.87
2019-03-20T13:10:55.433Z,38.47
2019-03-20T13:13:24.431Z,38.90
2019-03-20T13:15:54.199Z,49.10
2019-03-20T13:18:23.151Z,42.47
2019-03-20T13:20:52.228Z,41.40
2019-03-20T13:23:23.633Z,41.10
2019-03-20T13:25:52.679Z,49.83
2019-03-20T13:28:22.583Z,42.30
2019-03-20T13:30:55.257Z,41.87
2019-03-20T13:33:25.904Z,41.83
2019-03-20T13:35:53.729Z,41.87
2019-03-20T13:38:22.828Z,41.23
2019-03-20T13:40:51.848Z,41.90
2019-03-20T13:43:21.056Z,40.37
2019-03-20T13:45:50.210Z,42.10
2019-03-20T13:48:19.433Z,39.33
2019-03-20T13:50:48.540Z,39.10
2019-03-20T13:53:18.816Z,41.50
2019-03-20T13:55:47.863Z,38.83
2019-03-20T13:58:17.310Z,40.07
2019-03-20T14:00:46.530Z,38.87
2019-03-20T14:03:15.965Z,39.10
2019-03-20T14:05:45.101Z,38.50
2019-03-20T14:08:14.052Z,39.47
2019-03-20T14:10:50.331Z,39.03
2019-03-20T14:13:13.531Z,39.87
2019-03-20T14:15:43.639Z,39.70
2019-03-20T14:18:13.474Z,38.10
2019-03-20T14:20:42.941Z,37.53
2019-03-20T14:23:11.989Z,37.37
2019-03-20T14:25:40.966Z,37.73
2019-03-20T14:28:10.048Z,38.03
2019-03-20T14:30:40.193Z,37.83
2019-03-20T14:33:11.039Z,38.90
2019-03-20T14:35:40.439Z,38.87
2019-03-20T14:38:09.835Z,38.23
2019-03-20T14:40:39.252Z,37.93
2019-03-20T14:43:08.461Z,38.60
2019-03-20T14:45:37.374Z,39.70
2019-03-20T14:48:09.255Z,36.50
2019-03-20T14:50:39.035Z,36.50
2019-03-20T14:53:09.030Z,36.80
2019-03-20T14:55:38.169Z,37.13
2019-03-20T14:58:08.181Z,36.10
2019-03-20T15:00:37.317Z,36.03
2019-03-20T15:03:06.641Z,35.20
2019-03-20T15:05:35.813Z,36.80
2019-03-20T15:08:05.433Z,35.93
2019-03-20T15:10:34.503Z,37.20
2019-03-20T15:13:03.733Z,37.57
2019-03-20T15:15:52.987Z,37.60
2019-03-20T15:18:22.495Z,37.27
2019-03-20T15:20:51.539Z,36.37
2019-03-20T15:23:21.485Z,35.57
2019-03-20T15:25:51.414Z,42.53
2019-03-20T15:28:20.576Z,35.70
2019-03-20T15:30:49.895Z,35.90
2019-03-20T15:33:19.166Z,36.13
2019-03-20T15:35:48.372Z,33.33
2019-03-20T15:38:17.652Z,33.80
2019-03-20T15:40:55.945Z,33.63
2019-03-20T15:43:15.877Z,30.73
2019-03-20T15:45:44.956Z,29.30
2019-03-20T15:48:14.021Z,28.90
2019-03-20T15:50:43.532Z,29.70
2019-03-20T15:53:12.626Z,29.50
2019-03-20T15:55:44.398Z,30.07
2019-03-20T15:58:14.240Z,30.77
2019-03-20T16:00:43.629Z,30.57
2019-03-20T16:03:15.059Z,28.33
2019-03-20T16:05:44.112Z,28.63
2019-03-20T16:08:13.943Z,27.87
2019-03-20T16:10:43.010Z,28.40
2019-03-20T16:13:12.090Z,30.63
2019-03-20T16:15:41.623Z,27.70
2019-03-20T16:18:10.758Z,29.03
2019-03-20T16:20:42.064Z,29.37
2019-03-20T16:23:11.973Z,73.90
2019-03-20T16:25:41.165Z,35.80
2019-03-20T16:28:10.415Z,34.60
2019-03-20T16:30:42.396Z,28.87
2019-03-20T16:33:11.474Z,30.07
2019-03-20T16:35:40.477Z,29.07
2019-03-20T16:38:13.799Z,28.87
2019-03-20T16:40:45.728Z,30.57
2019-03-20T16:43:35.377Z,29.40
2019-03-20T16:46:06.524Z,32.37
2019-03-20T16:48:36.619Z,30.90
2019-03-20T16:51:08.656Z,32.27
2019-03-20T16:53:40.970Z,30.83
2019-03-20T16:56:10.203Z,33.53
2019-03-20T16:58:39.492Z,32.07
2019-03-20T17:01:09.123Z,31.20
2019-03-20T17:03:38.772Z,31.47
2019-03-20T17:06:09.218Z,30.97
2019-03-20T17:08:38.224Z,32.63
2019-03-20T17:11:30.447Z,33.17
2019-03-20T17:13:49.655Z,33.23
2019-03-20T17:16:19.483Z,32.47
2019-03-20T17:18:48.497Z,33.17
2019-03-20T17:21:17.952Z,32.47
2019-03-20T17:23:47.025Z,33.27
2019-03-20T17:26:16.946Z,34.50
2019-03-20T17:28:46.741Z,34.90
2019-03-20T17:31:15.850Z,34.33
2019-03-20T17:33:47.219Z,33.80
2019-03-20T17:36:16.219Z,35.23
2019-03-20T17:38:45.310Z,35.70
2019-03-20T17:41:14.507Z,34.57
2019-03-20T17:43:43.835Z,35.00
2019-03-20T17:46:12.875Z,34.83
2019-03-20T17:48:42.293Z,35.33
2019-03-20T17:51:13.538Z,35.67
2019-03-20T17:53:44.759Z,36.23
2019-03-20T17:56:13.788Z,37.03
2019-03-20T17:58:43.458Z,37.63
2019-03-20T18:01:12.487Z,37.90
2019-03-20T18:03:41.562Z,37.90
2019-03-20T18:06:11.474Z,38.53
2019-03-20T18:08:40.590Z,39.10
2019-03-20T18:11:09.580Z,38.37
2019-03-20T18:13:38.645Z,39.60
2019-03-20T18:16:08.111Z,40.53
2019-03-20T18:18:37.676Z,38.80
2019-03-20T18:21:06.793Z,39.53
2019-03-20T18:23:38.869Z,40.90
2019-03-20T18:26:08.413Z,38.47
2019-03-20T18:28:38.188Z,39.23
2019-03-20T18:31:08.773Z,37.57
2019-03-20T18:33:37.725Z,38.87
2019-03-20T18:36:07.155Z,37.20
2019-03-20T18:38:37.332Z,38.27
2019-03-20T18:41:06.530Z,35.77
2019-03-20T18:43:35.504Z,35.73
2019-03-20T18:46:04.968Z,34.33
2019-03-20T18:48:36.143Z,33.40
2019-03-20T18:51:04.334Z,33.20
2019-03-20T18:53:33.717Z,34.57
2019-03-20T18:56:02.746Z,34.50
2019-03-20T18:58:32.225Z,33.60
2019-03-20T19:01:02.168Z,33.43
2019-03-20T19:03:31.553Z,39.38
2019-03-20T19:06:04.055Z,33.00
2019-03-20T19:08:33.127Z,32.73
2019-03-20T19:11:05.017Z,32.27
2019-03-20T19:13:34.104Z,32.80
2019-03-20T19:16:03.511Z,32.40
2019-03-20T19:18:32.862Z,32.57
2019-03-20T19:21:02.005Z,33.10
2019-03-20T19:23:31.079Z,33.40
2019-03-20T19:26:00.176Z,34.37
2019-03-20T19:28:30.943Z,33.77
2019-03-20T19:31:00.295Z,40.23
2019-03-20T19:33:30.238Z,35.67
2019-03-20T19:36:00.316Z,33.40
2019-03-20T19:38:34.990Z,32.70
2019-03-20T19:40:59.045Z,32.13
2019-03-20T19:43:28.827Z,30.60
2019-03-20T19:45:59.397Z,29.10
2019-03-20T19:48:29.769Z,29.40
2019-03-20T19:50:59.044Z,28.63
2019-03-20T19:53:30.842Z,29.10
2019-03-20T19:56:00.281Z,27.33
2019-03-20T19:58:30.335Z,27.07
2019-03-20T20:00:59.686Z,27.80
2019-03-20T20:03:28.709Z,27.10
2019-03-20T20:05:59.009Z,28.43
2019-03-20T20:08:30.371Z,27.43
2019-03-20T20:10:59.390Z,28.67
2019-03-20T20:13:29.859Z,27.23
2019-03-20T20:15:59.231Z,27.90
2019-03-20T20:18:28.393Z,27.70
2019-03-20T20:20:59.485Z,28.20
2019-03-20T20:23:29.779Z,28.83
2019-03-20T20:26:00.997Z,29.33
2019-03-20T20:28:31.022Z,27.83
2019-03-20T20:31:01.393Z,28.57
2019-03-20T20:33:30.454Z,28.63
2019-03-20T20:35:59.925Z,34.30
2019-03-20T20:38:28.924Z,28.83
2019-03-20T20:40:58.229Z,28.33
2019-03-20T20:43:28.064Z,28.97
2019-03-20T20:45:59.925Z,33.65
2019-03-20T20:48:29.258Z,28.27
2019-03-20T20:50:58.305Z,27.20
2019-03-20T20:53:28.502Z,27.50
2019-03-20T20:55:59.367Z,27.93
2019-03-20T20:58:28.452Z,38.93
2019-03-20T21:01:15.181Z,29.53
2019-03-20T21:03:44.687Z,29.97
2019-03-20T21:06:14.085Z,27.47
2019-03-20T21:08:43.900Z,28.67
2019-03-20T21:11:13.329Z,27.33
2019-03-20T21:13:45.435Z,27.97
2019-03-20T21:16:15.632Z,25.63
2019-03-20T21:19:24.952Z,26.07
2019-03-20T21:22:35.578Z,26.40
2019-03-20T21:25:05.847Z,26.23
2019-03-20T21:28:29.734Z,26.47
2019-03-20T21:31:17.012Z,26.17
2019-03-20T21:34:31.766Z,26.70
2019-03-20T21:37:41.526Z,27.03
2019-03-20T21:40:13.557Z,27.60
2019-03-20T21:43:20.057Z,27.13
2019-03-20T21:46:34.693Z,27.73
2019-03-20T21:49:04.886Z,26.40
2019-03-20T21:51:35.374Z,27.30
2019-03-20T21:54:44.231Z,27.87
2019-03-20T21:57:35.733Z,27.43
2019-03-20T22:00:45.377Z,29.80
2019-03-20T22:03:15.982Z,31.57
2019-03-20T22:06:27.391Z,30.40
2019-03-20T22:08:58.062Z,29.67
2019-03-20T22:12:12.892Z,30.63
2019-03-20T22:14:44.908Z,29.30
2019-03-20T22:17:51.127Z,32.47
2019-03-20T22:20:35.399Z,29.60
2019-03-20T22:24:03.928Z,29.27
2019-03-20T22:27:10.466Z,29.63
2019-03-20T22:29:40.553Z,27.07
2019-03-20T22:32:50.188Z,29.40
2019-03-20T22:35:44.489Z,30.90
2019-03-20T22:38:27.128Z,29.77
2019-03-20T22:41:24.815Z,28.97
2019-03-20T22:44:01.924Z,28.93
2019-03-20T22:47:15.905Z,28.83
2019-03-20T22:50:32.176Z,28.63
2019-03-20T22:53:27.753Z,37.83
2019-03-20T22:56:35.801Z,30.30
2019-03-20T22:59:06.235Z,28.00
2019-03-20T23:01:53.846Z,33.57
2019-03-20T23:04:33.569Z,27.37
2019-03-20T23:07:03.719Z,27.87
2019-03-20T23:09:33.810Z,25.13
2019-03-20T23:12:06.772Z,26.93
2019-03-20T23:14:36.896Z,25.23
2019-03-20T23:17:07.097Z,28.10
2019-03-20T23:19:38.047Z,22.33
2019-03-20T23:22:08.457Z,32.28
2019-03-20T23:24:38.623Z,32.35
2019-03-20T23:27:11.899Z,32.75
2019-03-20T23:29:44.669Z,26.20
2019-03-20T23:32:14.771Z,25.03
2019-03-20T23:34:44.879Z,25.73
2019-03-20T23:37:14.970Z,24.57
2019-03-20T23:39:45.068Z,24.63
2019-03-20T23:42:15.169Z,25.20
2019-03-20T23:44:45.271Z,24.30
2019-03-20T23:47:15.346Z,30.10
2019-03-20T23:49:45.789Z,22.37
2019-03-20T23:52:15.910Z,23.13
2019-03-20T23:54:48.601Z,24.37
2019-03-20T23:57:19.259Z,23.57
2019-03-20T23:59:50.144Z,22.30
